createdAt,value
2023-02-27T00:34:11.282Z,101737.50
2023-02-27T00:36:42.940Z,101736.41
2023-02-27T00:39:11.563Z,101736.27
2023-02-27T00:41:42.695Z,101742.18
2023-02-27T00:44:11.154Z,101741.83
2023-02-27T00:46:39.870Z,101743.45
2023-02-27T00:49:08.722Z,101744.12
2023-02-27T00:51:37.055Z,101745.92
2023-02-27T00:54:21.458Z,101744.47
2023-02-27T00:56:49.963Z,101741.13
2023-02-27T00:59:19.550Z,101739.68
2023-02-27T01:01:48.619Z,101738.48
2023-02-27T01:04:16.948Z,101735.38
2023-02-27T01:06:45.124Z,101739.64
2023-02-27T01:09:15.419Z,101738.48
2023-02-27T01:11:43.866Z,101737.29
2023-02-27T01:14:12.379Z,101736.59
2023-02-27T01:16:41.750Z,101732.65
2023-02-27T01:19:14.004Z,101728.89
2023-02-27T01:21:42.421Z,101729.79
2023-02-27T01:24:11.878Z,101728.41
2023-02-27T01:26:40.515Z,101725.17
2023-02-27T01:29:09.158Z,101724.44
2023-02-27T01:31:37.670Z,101727.14
2023-02-27T01:34:06.084Z,101729.52
2023-02-27T01:36:34.941Z,101732.17
2023-02-27T01:39:03.506Z,101730.86
2023-02-27T01:41:32.278Z,101733.49
2023-02-27T01:44:10.167Z,101734.02
2023-02-27T01:46:39.279Z,101737.59
2023-02-27T01:49:16.345Z,101739.44
2023-02-27T01:51:53.826Z,101746.37
2023-02-27T01:54:26.211Z,101753.38
2023-02-27T01:56:55.030Z,101753.50
2023-02-27T01:59:26.687Z,101756.59
2023-02-27T02:01:56.946Z,101755.52
2023-02-27T02:04:32.316Z,101752.27
2023-02-27T02:07:14.013Z,101756.54
2023-02-27T02:09:59.277Z,101755.20
2023-02-27T02:12:31.038Z,101761.47
2023-02-27T02:14:59.629Z,101761.38
2023-02-27T02:17:31.071Z,101765.20
2023-02-27T02:20:21.279Z,101765.92
2023-02-27T02:23:09.880Z,101767.05
2023-02-27T02:26:07.844Z,101764.42
2023-02-27T02:29:01.061Z,101768.84
2023-02-27T02:31:52.315Z,101772.21
2023-02-27T02:35:03.122Z,101766.13
2023-02-27T02:38:03.319Z,101769.13
2023-02-27T02:40:47.238Z,101774.19
2023-02-27T02:43:30.902Z,101777.81
2023-02-27T02:46:08.646Z,101778.40
2023-02-27T02:48:49.134Z,101782.91
2023-02-27T02:51:30.779Z,101784.39
2023-02-27T02:54:25.552Z,101786.64
2023-02-27T02:57:15.676Z,101789.35
2023-02-27T02:59:58.302Z,101793.30
2023-02-27T03:02:31.534Z,101798.80
2023-02-27T03:05:14.654Z,101801.95
2023-02-27T03:07:49.547Z,101807.01
2023-02-27T03:10:22.727Z,101816.52
2023-02-27T03:13:17.477Z,101818.80
2023-02-27T03:15:51.497Z,101821.05
2023-02-27T03:18:26.555Z,101819.41
2023-02-27T03:21:01.864Z,101823.15
2023-02-27T03:23:37.709Z,101824.33
2023-02-27T03:26:07.655Z,101825.81
2023-02-27T03:28:41.388Z,101832.65
2023-02-27T03:31:32.423Z,101834.72
2023-02-27T03:34:11.934Z,101834.34
2023-02-27T03:37:01.269Z,101830.17
2023-02-27T03:39:50.624Z,101833.08
2023-02-27T03:42:34.827Z,101833.22
2023-02-27T03:45:42.084Z,101834.73
2023-02-27T03:48:11.179Z,101838.54
2023-02-27T03:50:39.908Z,101836.03
2023-02-27T03:53:19.004Z,101832.26
2023-02-27T03:55:49.472Z,101837.21
2023-02-27T03:58:18.039Z,101839.02
2023-02-27T04:00:46.774Z,101837.68
2023-02-27T04:03:16.579Z,101846.98
2023-02-27T04:05:45.369Z,101846.11
2023-02-27T04:08:14.678Z,101845.89
2023-02-27T04:10:51.726Z,101849.84
2023-02-27T04:13:27.738Z,101853.53
2023-02-27T04:16:36.447Z,101861.91
2023-02-27T04:19:23.593Z,101863.83
2023-02-27T04:21:54.804Z,101863.22
2023-02-27T04:24:52.509Z,101866.73
2023-02-27T04:27:28.057Z,101870.45
2023-02-27T04:30:02.248Z,101874.27
2023-02-27T04:32:43.609Z,101875.83
2023-02-27T04:35:45.490Z,101882.32
2023-02-27T04:38:36.472Z,101882.64
2023-02-27T04:41:12.331Z,101884.77
2023-02-27T04:43:45.155Z,101879.75
2023-02-27T04:46:18.846Z,101881.16
2023-02-27T04:49:15.840Z,101886.14
2023-02-27T04:51:58.760Z,101879.85
2023-02-27T04:54:33.492Z,101890.23
2023-02-27T04:57:07.234Z,101889.90
2023-02-27T04:59:41.667Z,101891.98
2023-02-27T05:02:16.483Z,101891.68
2023-02-27T05:04:46.555Z,101885.91
2023-02-27T05:07:19.567Z,101891.42
2023-02-27T05:10:03.736Z,101892.27
2023-02-27T05:12:52.597Z,101890.59
2023-02-27T05:15:48.295Z,101891.77
2023-02-27T05:18:20.389Z,101900.75
2023-02-27T05:21:02.402Z,101909.94
2023-02-27T05:24:02.138Z,101910.52
2023-02-27T05:26:55.656Z,101914.17
2023-02-27T05:29:23.796Z,101915.59
2023-02-27T05:32:15.996Z,101916.90
2023-02-27T05:34:52.448Z,101922.17
2023-02-27T05:37:28.949Z,101923.36
2023-02-27T05:40:00.258Z,101929.06
2023-02-27T05:42:38.962Z,101936.27
2023-02-27T05:45:20.307Z,101936.91
2023-02-27T05:48:05.006Z,101938.58
2023-02-27T05:50:36.097Z,101944.53
2023-02-27T05:53:11.682Z,101948.80
2023-02-27T05:55:47.334Z,101949.02
2023-02-27T05:58:33.865Z,101955.45
2023-02-27T06:01:07.965Z,101956.11
2023-02-27T06:03:40.368Z,101955.25
2023-02-27T06:06:14.897Z,101961.50
2023-02-27T06:08:44.844Z,101965.34
2023-02-27T06:11:13.758Z,101968.35
2023-02-27T06:13:42.388Z,101969.60
2023-02-27T06:16:13.128Z,101965.72
2023-02-27T06:18:42.703Z,101967.65
2023-02-27T06:21:13.761Z,101968.44
2023-02-27T06:23:42.725Z,101969.98
2023-02-27T06:26:14.448Z,101971.02
2023-02-27T06:28:42.826Z,101974.52
2023-02-27T06:31:11.334Z,101975.83
2023-02-27T06:33:39.833Z,101975.70
2023-02-27T06:36:08.301Z,101974.47
2023-02-27T06:38:37.682Z,101972.05
2023-02-27T06:41:06.260Z,101979.55
2023-02-27T06:43:37.308Z,101981.17
2023-02-27T06:46:06.092Z,101983.83
2023-02-27T06:48:38.005Z,101988.30
2023-02-27T06:51:06.500Z,101992.61
2023-02-27T06:53:35.036Z,101993.76
2023-02-27T06:56:03.456Z,101996.30
2023-02-27T06:58:31.621Z,101996.02
2023-02-27T07:01:01.317Z,101999.65
2023-02-27T07:03:32.590Z,101993.95
2023-02-27T07:07:32.545Z,102000.42
2023-02-27T07:09:23.445Z,102010.05
2023-02-27T07:11:51.815Z,102011.54
2023-02-27T07:14:20.293Z,102019.89
2023-02-27T07:16:51.236Z,102022.52
2023-02-27T07:19:19.735Z,102027.24
2023-02-27T07:21:48.292Z,102025.15
2023-02-27T07:24:17.262Z,102025.26
2023-02-27T07:26:46.764Z,102029.81
2023-02-27T07:29:18.049Z,102033.44
2023-02-27T07:31:46.214Z,102034.83
2023-02-27T07:34:16.143Z,102034.42
2023-02-27T07:36:46.646Z,102039.18
2023-02-27T07:39:15.443Z,102036.08
2023-02-27T07:41:47.232Z,102041.77
2023-02-27T07:44:15.729Z,102044.00
2023-02-27T07:46:45.082Z,102045.17
2023-02-27T07:49:13.567Z,102050.61
2023-02-27T07:51:41.755Z,102048.23
2023-02-27T07:54:10.965Z,102046.34
2023-02-27T07:56:42.225Z,102048.64
2023-02-27T07:59:11.389Z,102049.55
2023-02-27T08:01:42.940Z,102049.67
2023-02-27T08:04:11.580Z,102052.55
2023-02-27T08:06:43.860Z,102051.55
2023-02-27T08:09:12.544Z,102047.59
2023-02-27T08:11:41.896Z,102056.12
2023-02-27T08:14:10.687Z,102059.27
2023-02-27T08:16:40.880Z,102057.34
2023-02-27T08:19:09.984Z,102058.79
2023-02-27T08:21:41.460Z,102060.74
2023-02-27T08:24:09.881Z,102064.40
2023-02-27T08:26:38.450Z,102062.02
2023-02-27T08:29:07.960Z,102063.70
2023-02-27T08:31:36.576Z,102065.39
2023-02-27T08:34:10.428Z,102071.13
2023-02-27T08:36:40.331Z,102076.69
2023-02-27T08:39:10.075Z,102073.08
2023-02-27T08:41:39.554Z,102071.63
2023-02-27T08:44:08.030Z,102075.02
2023-02-27T08:46:36.551Z,102078.84
2023-02-27T08:49:05.660Z,102078.56
2023-02-27T08:51:36.929Z,102084.37
2023-02-27T08:54:05.714Z,102084.47
2023-02-27T08:56:35.277Z,102085.92
2023-02-27T08:59:03.821Z,102087.05
2023-02-27T09:01:36.698Z,102085.92
2023-02-27T09:04:09.965Z,102088.60
2023-02-27T09:06:38.964Z,102084.83
2023-02-27T09:09:07.523Z,102088.05
2023-02-27T09:11:38.232Z,102087.44
2023-02-27T09:14:07.985Z,102086.42
2023-02-27T09:16:37.436Z,102088.53
2023-02-27T09:19:07.399Z,102090.98
2023-02-27T09:21:37.657Z,102090.97
2023-02-27T09:24:19.095Z,102092.48
2023-02-27T09:26:50.427Z,102094.75
2023-02-27T09:29:19.141Z,102094.30
2023-02-27T09:31:47.998Z,102097.50
2023-02-27T09:34:19.677Z,102098.77
2023-02-27T09:36:47.728Z,102102.77
2023-02-27T09:39:16.304Z,102106.29
2023-02-27T09:41:56.058Z,102109.77
2023-02-27T09:44:47.413Z,102107.34
2023-02-27T09:47:25.486Z,102112.88
2023-02-27T09:50:05.406Z,102115.38
2023-02-27T09:52:38.164Z,102114.77
2023-02-27T09:55:19.633Z,102116.55
2023-02-27T09:57:52.386Z,102113.11
2023-02-27T10:00:36.960Z,102116.80
2023-02-27T10:03:32.902Z,102115.27
2023-02-27T10:06:25.682Z,102115.29
2023-02-27T10:09:33.186Z,102120.59
2023-02-27T10:12:20.727Z,102119.62
2023-02-27T10:15:08.245Z,102117.08
2023-02-27T10:17:42.770Z,102121.15
2023-02-27T10:20:26.391Z,102117.73
2023-02-27T10:22:57.693Z,102120.54
2023-02-27T10:25:32.178Z,102119.19
2023-02-27T10:28:16.392Z,102116.98
2023-02-27T10:30:57.100Z,102121.91
2023-02-27T10:33:40.474Z,102122.45
2023-02-27T10:36:18.070Z,102121.42
2023-02-27T10:39:18.185Z,102121.73
2023-02-27T10:41:47.883Z,102127.40
2023-02-27T10:44:20.801Z,102125.13
2023-02-27T10:46:51.766Z,102121.06
2023-02-27T10:49:22.473Z,102122.05
2023-02-27T10:52:11.385Z,102121.17
2023-02-27T10:54:42.225Z,102123.34
2023-02-27T10:57:33.311Z,102121.45
2023-02-27T11:00:07.233Z,102126.48
2023-02-27T11:02:41.159Z,102128.73
2023-02-27T11:05:30.834Z,102128.67
2023-02-27T11:08:26.879Z,102132.15
2023-02-27T11:10:57.088Z,102132.08
2023-02-27T11:13:28.325Z,102136.09
2023-02-27T11:16:14.286Z,102142.00
2023-02-27T11:18:45.179Z,102140.55
2023-02-27T11:21:28.351Z,102138.80
2023-02-27T11:23:59.257Z,102140.95
2023-02-27T11:26:31.383Z,102134.42
2023-02-27T11:29:07.430Z,102134.96
2023-02-27T11:31:37.490Z,102135.77
2023-02-27T11:34:08.607Z,102135.11
2023-02-27T11:36:46.689Z,102132.20
2023-02-27T11:39:35.643Z,102131.45
2023-02-27T11:42:23.242Z,102117.55
2023-02-27T11:45:00.016Z,102112.91
2023-02-27T11:47:36.127Z,102097.27
2023-02-27T11:50:35.338Z,102096.54
2023-02-27T11:53:27.995Z,102095.98
2023-02-27T11:55:59.705Z,102092.65
2023-02-27T11:58:35.806Z,102095.06
2023-02-27T12:01:09.365Z,102097.61
2023-02-27T12:04:05.063Z,102102.73
2023-02-27T12:07:21.607Z,102099.16
2023-02-27T12:10:09.475Z,102099.20
2023-02-27T12:12:45.232Z,102106.13
2023-02-27T12:15:13.654Z,102107.34
2023-02-27T12:17:50.565Z,102109.84
2023-02-27T12:20:59.909Z,102110.52
2023-02-27T12:23:39.142Z,102110.22
2023-02-27T12:26:15.216Z,102094.86
2023-02-27T12:28:58.880Z,102088.53
2023-02-27T12:31:36.008Z,102084.88
2023-02-27T12:34:42.549Z,102086.20
2023-02-27T12:37:21.261Z,102094.55
2023-02-27T12:39:53.488Z,102091.48
2023-02-27T12:42:45.240Z,102101.45
2023-02-27T12:45:16.281Z,102112.26
2023-02-27T12:47:52.070Z,102113.20
2023-02-27T12:50:23.600Z,102118.92
2023-02-27T12:53:07.237Z,102119.75
2023-02-27T12:55:43.884Z,102123.45
2023-02-27T12:58:35.696Z,102127.33
2023-02-27T13:01:39.416Z,102131.27
2023-02-27T13:04:25.355Z,102134.04
2023-02-27T13:07:20.643Z,102137.41
2023-02-27T13:09:57.581Z,102136.39
2023-02-27T13:12:47.343Z,102135.16
2023-02-27T13:15:20.113Z,102136.92
2023-02-27T13:18:01.924Z,102140.75
2023-02-27T13:20:57.192Z,102141.48
2023-02-27T13:23:48.853Z,102142.86
2023-02-27T13:26:30.477Z,102148.42
2023-02-27T13:29:01.324Z,102143.45
2023-02-27T13:31:46.769Z,102141.05
2023-02-27T13:34:23.486Z,102133.44
2023-02-27T13:37:01.829Z,102133.43
2023-02-27T13:39:46.081Z,102132.09
2023-02-27T13:42:33.567Z,102138.52
2023-02-27T13:45:04.168Z,102140.72
2023-02-27T13:47:50.106Z,102139.36
2023-02-27T13:50:18.299Z,102134.26
2023-02-27T13:52:48.043Z,102137.32
2023-02-27T13:55:38.096Z,102133.68
2023-02-27T13:58:14.862Z,102131.65
2023-02-27T14:00:45.267Z,102129.64
2023-02-27T14:03:22.272Z,102123.42
2023-02-27T14:05:53.933Z,102124.69
2023-02-27T14:08:47.524Z,102127.52
2023-02-27T14:11:18.169Z,102132.31
2023-02-27T14:13:50.506Z,102134.42
2023-02-27T14:16:40.599Z,102139.75
2023-02-27T14:19:27.503Z,102140.98
2023-02-27T14:22:31.801Z,102145.69
2023-02-27T14:25:20.605Z,102148.23
2023-02-27T14:27:56.503Z,102156.77
2023-02-27T14:30:40.979Z,102162.15
2023-02-27T14:33:33.290Z,102159.81
2023-02-27T14:36:20.419Z,102163.39
2023-02-27T14:38:59.883Z,102165.05
2023-02-27T14:41:49.868Z,102164.59
2023-02-27T14:44:25.038Z,102170.51
2023-02-27T14:46:55.835Z,102172.77
2023-02-27T14:49:34.143Z,102173.70
2023-02-27T14:52:22.683Z,102175.73
2023-02-27T14:54:52.123Z,102180.02
2023-02-27T14:57:27.085Z,102181.41
2023-02-27T14:59:56.172Z,102183.56
2023-02-27T15:02:35.009Z,102184.98
2023-02-27T15:05:03.920Z,102188.83
2023-02-27T15:07:35.881Z,102191.62
2023-02-27T15:10:12.378Z,102190.38
2023-02-27T15:12:40.966Z,102191.02
2023-02-27T15:15:16.836Z,102191.67
2023-02-27T15:17:48.859Z,102192.87
2023-02-27T15:20:30.515Z,102192.14
2023-02-27T15:23:01.983Z,102194.52
2023-02-27T15:25:39.230Z,102196.57
2023-02-27T15:28:24.232Z,102200.02
2023-02-27T15:30:55.641Z,102199.95
2023-02-27T15:33:31.103Z,102205.89
2023-02-27T15:36:03.025Z,102211.30
2023-02-27T15:38:38.480Z,102209.04
2023-02-27T15:41:08.917Z,102213.23
2023-02-27T15:43:37.627Z,102216.15
2023-02-27T15:46:06.192Z,102219.96
2023-02-27T15:48:34.865Z,102223.24
2023-02-27T15:51:04.692Z,102224.25
2023-02-27T15:53:34.395Z,102222.08
2023-02-27T15:56:06.996Z,102228.09
2023-02-27T15:58:47.290Z,102229.91
2023-02-27T16:01:21.855Z,102230.02
2023-02-27T16:03:53.398Z,102239.17
2023-02-27T16:06:39.141Z,102245.56
2023-02-27T16:09:21.390Z,102247.17
2023-02-27T16:11:49.890Z,102245.83
2023-02-27T16:14:41.335Z,102251.69
2023-02-27T16:17:55.775Z,102259.25
2023-02-27T16:20:48.171Z,102257.55
2023-02-27T16:23:26.787Z,102259.58
2023-02-27T16:26:01.799Z,102265.48
2023-02-27T16:28:35.180Z,102264.77
2023-02-27T16:31:08.523Z,102265.97
2023-02-27T16:33:41.128Z,102262.09
2023-02-27T16:36:21.850Z,102265.38
2023-02-27T16:38:52.110Z,102267.61
2023-02-27T16:41:22.283Z,102274.21
2023-02-27T16:43:53.833Z,102274.89
2023-02-27T16:46:22.927Z,102279.01
2023-02-27T16:48:55.874Z,102278.36
2023-02-27T16:51:27.068Z,102280.76
2023-02-27T16:53:57.577Z,102284.35
2023-02-27T16:56:37.796Z,102291.64
2023-02-27T16:59:08.863Z,102292.74
2023-02-27T17:01:37.260Z,102298.09
2023-02-27T17:04:13.551Z,102298.40
2023-02-27T17:06:48.088Z,102303.30
2023-02-27T17:09:16.902Z,102310.05
2023-02-27T17:11:46.143Z,102313.52
2023-02-27T17:14:15.475Z,102324.09
2023-02-27T17:16:43.779Z,102327.01
2023-02-27T17:19:12.358Z,102326.61
2023-02-27T17:21:41.397Z,102330.67
2023-02-27T17:24:09.988Z,102331.81
2023-02-27T17:26:38.346Z,102338.39
2023-02-27T17:29:07.014Z,102341.13
2023-02-27T17:31:36.905Z,102348.23
2023-02-27T17:34:05.691Z,102353.38
2023-02-27T17:36:33.915Z,102354.03
2023-02-27T17:39:04.562Z,102361.84
2023-02-27T17:41:33.175Z,102361.95
2023-02-27T17:44:02.414Z,102364.54
2023-02-27T17:46:31.967Z,102364.31
2023-02-27T17:49:01.277Z,102362.52
2023-02-27T17:51:31.738Z,102365.25
2023-02-27T17:54:05.465Z,102362.95
2023-02-27T17:56:36.806Z,102363.91
2023-02-27T17:59:06.044Z,102365.58
2023-02-27T18:01:38.286Z,102365.55
2023-02-27T18:04:08.357Z,102367.77
2023-02-27T18:06:38.162Z,102371.92
2023-02-27T18:09:07.066Z,102374.14
2023-02-27T18:11:39.203Z,102374.29
2023-02-27T18:14:07.699Z,102372.83
2023-02-27T18:16:36.981Z,102371.75
2023-02-27T18:19:07.009Z,102377.60
2023-02-27T18:21:36.107Z,102379.27
2023-02-27T18:24:05.120Z,102381.30
2023-02-27T18:26:33.613Z,102380.55
2023-02-27T18:29:06.560Z,102385.86
2023-02-27T18:31:39.110Z,102388.17
2023-02-27T18:34:09.577Z,102390.30
2023-02-27T18:36:38.807Z,102394.63
2023-02-27T18:39:08.189Z,102397.85
2023-02-27T18:41:39.916Z,102394.17
2023-02-27T18:44:12.371Z,102393.59
2023-02-27T18:46:43.966Z,102392.81
2023-02-27T18:49:13.642Z,102394.66
2023-02-27T18:51:44.403Z,102397.19
2023-02-27T18:54:14.687Z,102399.20
2023-02-27T18:56:43.611Z,102396.22
2023-02-27T18:59:12.621Z,102399.67
2023-02-27T19:01:41.162Z,102407.61
2023-02-27T19:04:09.941Z,102409.50
2023-02-27T19:06:41.194Z,102409.64
2023-02-27T19:09:19.161Z,102410.77
2023-02-27T19:11:48.808Z,102410.64
2023-02-27T19:14:17.363Z,102403.67
2023-02-27T19:16:46.836Z,102395.09
2023-02-27T19:19:15.509Z,102395.89
2023-02-27T19:21:44.991Z,102397.02
2023-02-27T19:24:14.577Z,102401.98
2023-02-27T19:26:43.052Z,102400.46
2023-02-27T19:29:11.543Z,102401.41
2023-02-27T19:31:40.713Z,102404.14
2023-02-27T19:34:09.187Z,102405.43
2023-02-27T19:36:37.487Z,102407.30
2023-02-27T19:39:06.353Z,102405.34
2023-02-27T19:41:37.351Z,102407.86
2023-02-27T19:44:06.362Z,102405.92
2023-02-27T19:46:36.195Z,102410.02
2023-02-27T19:49:06.081Z,102413.58
2023-02-27T19:51:34.821Z,102417.48
2023-02-27T19:54:04.076Z,102420.34
2023-02-27T19:56:32.607Z,102426.81
2023-02-27T19:59:02.061Z,102426.21
2023-02-27T20:01:35.493Z,102431.31
2023-02-27T20:04:04.791Z,102430.48
2023-02-27T20:06:44.341Z,102433.00
2023-02-27T20:09:16.885Z,102431.23
2023-02-27T20:11:53.778Z,102433.42
2023-02-27T20:14:22.443Z,102435.30
2023-02-27T20:16:51.041Z,102433.86
2023-02-27T20:19:21.604Z,102435.56
2023-02-27T20:21:51.085Z,102434.63
2023-02-27T20:24:20.904Z,102434.04
2023-02-27T20:26:55.516Z,102441.94
2023-02-27T20:29:25.889Z,102451.97
2023-02-27T20:32:15.183Z,102451.01
2023-02-27T20:34:44.402Z,102458.36
2023-02-27T20:37:12.980Z,102459.16
2023-02-27T20:39:45.593Z,102458.10
2023-02-27T20:42:15.278Z,102461.16
2023-02-27T20:44:49.793Z,102463.36
2023-02-27T20:47:18.296Z,102464.67
2023-02-27T20:49:46.735Z,102462.73
2023-02-27T20:52:15.494Z,102462.70
2023-02-27T20:54:44.037Z,102463.37
2023-02-27T20:57:13.026Z,102467.39
2023-02-27T20:59:41.749Z,102469.31
2023-02-27T21:02:13.535Z,102465.98
2023-02-27T21:04:48.627Z,102470.65
2023-02-27T21:07:21.608Z,102471.11
2023-02-27T21:09:51.706Z,102470.96
2023-02-27T21:12:20.601Z,102475.80
2023-02-27T21:14:52.588Z,102475.62
2023-02-27T21:17:21.656Z,102479.41
2023-02-27T21:19:50.535Z,102473.16
2023-02-27T21:22:18.905Z,102472.42
2023-02-27T21:24:50.304Z,102473.80
2023-02-27T21:27:22.145Z,102471.56
2023-02-27T21:29:55.101Z,102474.45
2023-02-27T21:32:24.414Z,102480.27
2023-02-27T21:34:52.944Z,102476.26
2023-02-27T21:37:24.226Z,102477.09
2023-02-27T21:39:55.680Z,102479.81
2023-02-27T21:42:24.407Z,102478.00
2023-02-27T21:44:55.415Z,102477.21
2023-02-27T21:47:24.010Z,102478.95
2023-02-27T21:49:55.538Z,102482.59
2023-02-27T21:52:24.288Z,102484.02
2023-02-27T21:54:54.401Z,102485.56
2023-02-27T21:57:23.378Z,102487.61
2023-02-27T21:59:52.205Z,102488.54
2023-02-27T22:02:20.665Z,102488.91
2023-02-27T22:04:52.250Z,102484.67
2023-02-27T22:07:20.744Z,102483.39
2023-02-27T22:09:50.245Z,102480.96
2023-02-27T22:12:19.670Z,102478.38
2023-02-27T22:14:48.751Z,102476.05
2023-02-27T22:17:18.390Z,102477.05
2023-02-27T22:19:48.536Z,102476.95
2023-02-27T22:22:17.309Z,102479.00
2023-02-27T22:24:46.250Z,102481.80
2023-02-27T22:27:16.837Z,102486.21
2023-02-27T22:29:48.573Z,102485.45
2023-02-27T22:32:17.498Z,102484.40
2023-02-27T22:34:46.331Z,102484.38
2023-02-27T22:37:20.037Z,102481.13
2023-02-27T22:39:48.653Z,102476.20
2023-02-27T22:42:17.285Z,102480.56
2023-02-27T22:44:46.006Z,102480.38
2023-02-27T22:47:14.750Z,102479.52
2023-02-27T22:49:43.365Z,102485.60
2023-02-27T22:52:11.729Z,102484.28
2023-02-27T22:54:40.779Z,102486.63
2023-02-27T22:57:09.330Z,102488.38
2023-02-27T22:59:37.898Z,102489.52
2023-02-27T23:02:06.754Z,102490.17
2023-02-27T23:04:35.616Z,102489.61
2023-02-27T23:07:04.369Z,102490.96
2023-02-27T23:09:32.560Z,102491.25
2023-02-27T23:12:03.953Z,102491.88
2023-02-27T23:14:32.443Z,102496.90
2023-02-27T23:17:01.055Z,102499.71
2023-02-27T23:19:29.746Z,102501.61
2023-02-27T23:21:58.127Z,102500.20
2023-02-27T23:24:26.982Z,102501.70
2023-02-27T23:26:56.477Z,102503.44
2023-02-27T23:29:24.764Z,102504.27
2023-02-27T23:31:56.291Z,102508.33
2023-02-27T23:34:25.488Z,102512.55
2023-02-27T23:36:53.923Z,102513.37
2023-02-27T23:39:22.441Z,102516.35
2023-02-27T23:41:51.308Z,102516.14
2023-02-27T23:44:20.551Z,102514.78
2023-02-27T23:46:48.836Z,102517.09
2023-02-27T23:49:17.098Z,102517.07
2023-02-27T23:51:46.556Z,102518.87
2023-02-27T23:54:15.024Z,102518.69
2023-02-27T23:56:43.826Z,102522.11
2023-02-27T23:59:13.839Z,102522.02
